sensor_id;sensor_type;location;lat;lon;timestamp;temperature;humidity
34406;DHT22;20658;45.630;8.886;2023-08-31T00:01:02;17.90;88.60
34406;DHT22;20658;45.630;8.886;2023-08-31T00:03:31;18.00;88.70
34406;DHT22;20658;45.630;8.886;2023-08-31T00:06:02;17.90;89.80
34406;DHT22;20658;45.630;8.886;2023-08-31T00:08:31;17.90;90.60
34406;DHT22;20658;45.630;8.886;2023-08-31T00:11:00;17.90;91.20
34406;DHT22;20658;45.630;8.886;2023-08-31T00:13:29;17.90;90.80
34406;DHT22;20658;45.630;8.886;2023-08-31T00:16:04;17.80;90.50
34406;DHT22;20658;45.630;8.886;2023-08-31T00:18:32;17.80;90.40
34406;DHT22;20658;45.630;8.886;2023-08-31T00:21:02;17.70;90.70
34406;DHT22;20658;45.630;8.886;2023-08-31T00:23:31;17.70;91.50
34406;DHT22;20658;45.630;8.886;2023-08-31T00:26:00;17.70;92.50
34406;DHT22;20658;45.630;8.886;2023-08-31T00:28:28;17.70;93.80
34406;DHT22;20658;45.630;8.886;2023-08-31T00:31:03;17.60;94.60
34406;DHT22;20658;45.630;8.886;2023-08-31T00:33:38;17.60;96.20
34406;DHT22;20658;45.630;8.886;2023-08-31T00:36:07;17.50;97.10
34406;DHT22;20658;45.630;8.886;2023-08-31T00:38:41;17.40;97.40
34406;DHT22;20658;45.630;8.886;2023-08-31T00:41:09;17.30;97.90
34406;DHT22;20658;45.630;8.886;2023-08-31T00:43:44;17.20;98.80
34406;DHT22;20658;45.630;8.886;2023-08-31T00:46:14;17.20;99.70
34406;DHT22;20658;45.630;8.886;2023-08-31T00:48:45;17.10;99.90
34406;DHT22;20658;45.630;8.886;2023-08-31T00:51:15;17.10;99.90
34406;DHT22;20658;45.630;8.886;2023-08-31T00:53:44;17.00;99.90
34406;DHT22;20658;45.630;8.886;2023-08-31T00:56:13;17.00;99.90
34406;DHT22;20658;45.630;8.886;2023-08-31T00:58:41;17.00;99.90
34406;DHT22;20658;45.630;8.886;2023-08-31T01:01:23;17.00;99.90
34406;DHT22;20658;45.630;8.886;2023-08-31T01:04:03;16.90;99.90
34406;DHT22;20658;45.630;8.886;2023-08-31T01:06:50;16.90;99.90
34406;DHT22;20658;45.630;8.886;2023-08-31T01:09:30;16.90;99.90
34406;DHT22;20658;45.630;8.886;2023-08-31T01:12:06;16.80;99.90
34406;DHT22;20658;45.630;8.886;2023-08-31T01:14:50;16.80;99.90
34406;DHT22;20658;45.630;8.886;2023-08-31T01:17:30;16.80;99.90
34406;DHT22;20658;45.630;8.886;2023-08-31T01:19:59;16.70;99.90
34406;DHT22;20658;45.630;8.886;2023-08-31T01:22:38;16.70;99.90
34406;DHT22;20658;45.630;8.886;2023-08-31T01:25:10;16.70;99.90
34406;DHT22;20658;45.630;8.886;2023-08-31T01:27:39;16.60;99.90
34406;DHT22;20658;45.630;8.886;2023-08-31T01:30:08;16.60;99.90
34406;DHT22;20658;45.630;8.886;2023-08-31T01:32:43;16.60;99.90
34406;DHT22;20658;45.630;8.886;2023-08-31T01:35:16;16.60;99.90
34406;DHT22;20658;45.630;8.886;2023-08-31T01:37:51;16.50;99.90
34406;DHT22;20658;45.630;8.886;2023-08-31T01:40:26;16.50;99.90
34406;DHT22;20658;45.630;8.886;2023-08-31T01:42:59;16.40;99.90
34406;DHT22;20658;45.630;8.886;2023-08-31T01:45:30;16.40;99.90
34406;DHT22;20658;45.630;8.886;2023-08-31T01:48:01;16.30;99.90
34406;DHT22;20658;45.630;8.886;2023-08-31T01:50:29;16.30;99.90
34406;DHT22;20658;45.630;8.886;2023-08-31T01:53:03;16.30;99.90
34406;DHT22;20658;45.630;8.886;2023-08-31T01:55:35;16.30;99.90
34406;DHT22;20658;45.630;8.886;2023-08-31T01:58:04;16.30;99.90
34406;DHT22;20658;45.630;8.886;2023-08-31T02:00:37;16.20;99.90
34406;DHT22;20658;45.630;8.886;2023-08-31T02:03:11;16.20;99.90
34406;DHT22;20658;45.630;8.886;2023-08-31T02:05:41;16.20;99.90
34406;DHT22;20658;45.630;8.886;2023-08-31T02:08:10;16.20;99.90
34406;DHT22;20658;45.630;8.886;2023-08-31T02:10:40;16.20;99.90
34406;DHT22;20658;45.630;8.886;2023-08-31T02:13:08;16.20;99.90
34406;DHT22;20658;45.630;8.886;2023-08-31T02:15:37;16.20;99.90
34406;DHT22;20658;45.630;8.886;2023-08-31T02:18:07;16.20;99.90
34406;DHT22;20658;45.630;8.886;2023-08-31T02:20:36;16.20;99.90
34406;DHT22;20658;45.630;8.886;2023-08-31T02:23:04;16.10;99.90
34406;DHT22;20658;45.630;8.886;2023-08-31T02:25:39;16.10;99.90
34406;DHT22;20658;45.630;8.886;2023-08-31T02:28:14;16.10;99.90
34406;DHT22;20658;45.630;8.886;2023-08-31T02:30:45;16.10;99.90
34406;DHT22;20658;45.630;8.886;2023-08-31T02:33:13;16.10;99.90
34406;DHT22;20658;45.630;8.886;2023-08-31T02:35:51;16.00;99.90
34406;DHT22;20658;45.630;8.886;2023-08-31T02:38:19;16.00;99.90
34406;DHT22;20658;45.630;8.886;2023-08-31T02:40:49;16.00;99.90
34406;DHT22;20658;45.630;8.886;2023-08-31T02:43:18;16.00;99.90
34406;DHT22;20658;45.630;8.886;2023-08-31T02:45:59;16.00;99.90
34406;DHT22;20658;45.630;8.886;2023-08-31T02:48:28;16.00;99.90
34406;DHT22;20658;45.630;8.886;2023-08-31T02:50:57;15.90;99.90
34406;DHT22;20658;45.630;8.886;2023-08-31T02:53:27;15.90;99.90
34406;DHT22;20658;45.630;8.886;2023-08-31T02:55:58;16.00;99.90
34406;DHT22;20658;45.630;8.886;2023-08-31T02:58:29;15.90;99.90
34406;DHT22;20658;45.630;8.886;2023-08-31T03:01:07;15.90;99.90
34406;DHT22;20658;45.630;8.886;2023-08-31T03:03:46;15.90;99.90
34406;DHT22;20658;45.630;8.886;2023-08-31T03:06:21;15.90;99.90
34406;DHT22;20658;45.630;8.886;2023-08-31T03:08:49;15.90;99.90
34406;DHT22;20658;45.630;8.886;2023-08-31T03:11:19;15.90;99.90
34406;DHT22;20658;45.630;8.886;2023-08-31T03:13:48;15.90;99.90
34406;DHT22;20658;45.630;8.886;2023-08-31T03:16:16;15.90;99.90
34406;DHT22;20658;45.630;8.886;2023-08-31T03:18:45;15.90;99.90
34406;DHT22;20658;45.630;8.886;2023-08-31T03:21:13;15.90;99.90
34406;DHT22;20658;45.630;8.886;2023-08-31T03:23:42;16.00;99.90
34406;DHT22;20658;45.630;8.886;2023-08-31T03:26:12;15.90;99.90
34406;DHT22;20658;45.630;8.886;2023-08-31T03:28:42;16.00;99.90
34406;DHT22;20658;45.630;8.886;2023-08-31T03:31:10;16.00;99.90
34406;DHT22;20658;45.630;8.886;2023-08-31T03:33:42;16.00;99.90
34406;DHT22;20658;45.630;8.886;2023-08-31T03:36:11;16.00;99.90
34406;DHT22;20658;45.630;8.886;2023-08-31T03:38:39;16.00;99.90
34406;DHT22;20658;45.630;8.886;2023-08-31T03:41:08;16.00;99.90
34406;DHT22;20658;45.630;8.886;2023-08-31T03:43:38;16.00;99.90
34406;DHT22;20658;45.630;8.886;2023-08-31T03:46:08;16.00;99.90
34406;DHT22;20658;45.630;8.886;2023-08-31T03:48:38;16.00;99.90
34406;DHT22;20658;45.630;8.886;2023-08-31T03:51:11;16.00;99.90
34406;DHT22;20658;45.630;8.886;2023-08-31T03:53:43;16.00;99.90
34406;DHT22;20658;45.630;8.886;2023-08-31T03:56:12;16.00;99.90
34406;DHT22;20658;45.630;8.886;2023-08-31T03:58:47;16.00;99.90
34406;DHT22;20658;45.630;8.886;2023-08-31T04:01:15;16.00;99.90
34406;DHT22;20658;45.630;8.886;2023-08-31T04:03:44;16.00;99.90
34406;DHT22;20658;45.630;8.886;2023-08-31T04:06:18;16.00;99.90
34406;DHT22;20658;45.630;8.886;2023-08-31T04:08:52;16.00;99.90
34406;DHT22;20658;45.630;8.886;2023-08-31T04:11:20;16.00;99.90
34406;DHT22;20658;45.630;8.886;2023-08-31T04:13:55;16.00;99.90
34406;DHT22;20658;45.630;8.886;2023-08-31T04:16:24;16.10;99.90
34406;DHT22;20658;45.630;8.886;2023-08-31T04:18:57;16.10;99.90
34406;DHT22;20658;45.630;8.886;2023-08-31T04:21:31;16.10;99.90
34406;DHT22;20658;45.630;8.886;2023-08-31T04:23:59;16.10;99.90
34406;DHT22;20658;45.630;8.886;2023-08-31T04:26:28;16.10;99.90
34406;DHT22;20658;45.630;8.886;2023-08-31T04:28:58;16.10;99.90
34406;DHT22;20658;45.630;8.886;2023-08-31T04:31:31;16.10;99.90
34406;DHT22;20658;45.630;8.886;2023-08-31T04:34:00;16.10;99.90
34406;DHT22;20658;45.630;8.886;2023-08-31T04:36:34;16.10;99.90
34406;DHT22;20658;45.630;8.886;2023-08-31T04:39:07;16.10;99.90
34406;DHT22;20658;45.630;8.886;2023-08-31T04:41:41;16.10;99.90
34406;DHT22;20658;45.630;8.886;2023-08-31T04:44:15;16.10;99.90
34406;DHT22;20658;45.630;8.886;2023-08-31T04:46:49;16.10;99.90
34406;DHT22;20658;45.630;8.886;2023-08-31T04:49:23;16.10;99.90
34406;DHT22;20658;45.630;8.886;2023-08-31T04:51:56;16.10;99.90
34406;DHT22;20658;45.630;8.886;2023-08-31T04:54:30;16.10;99.90
34406;DHT22;20658;45.630;8.886;2023-08-31T04:57:04;16.10;99.90
34406;DHT22;20658;45.630;8.886;2023-08-31T04:59:35;16.10;99.90
34406;DHT22;20658;45.630;8.886;2023-08-31T05:02:09;16.10;99.90
34406;DHT22;20658;45.630;8.886;2023-08-31T05:04:42;16.10;99.90
34406;DHT22;20658;45.630;8.886;2023-08-31T05:07:15;16.10;99.90
34406;DHT22;20658;45.630;8.886;2023-08-31T05:09:49;16.10;99.90
34406;DHT22;20658;45.630;8.886;2023-08-31T05:12:18;16.20;99.90
34406;DHT22;20658;45.630;8.886;2023-08-31T05:14:53;16.20;99.90
34406;DHT22;20658;45.630;8.886;2023-08-31T05:17:26;16.20;99.90
34406;DHT22;20658;45.630;8.886;2023-08-31T05:19:54;16.30;99.90
34406;DHT22;20658;45.630;8.886;2023-08-31T05:22:23;16.30;99.90
34406;DHT22;20658;45.630;8.886;2023-08-31T05:24:56;16.30;99.90
34406;DHT22;20658;45.630;8.886;2023-08-31T05:27:30;16.30;99.90
34406;DHT22;20658;45.630;8.886;2023-08-31T05:30:00;16.40;99.90
34406;DHT22;20658;45.630;8.886;2023-08-31T05:32:33;16.40;99.90
34406;DHT22;20658;45.630;8.886;2023-08-31T05:35:08;16.40;99.90
34406;DHT22;20658;45.630;8.886;2023-08-31T05:37:41;16.50;99.90
34406;DHT22;20658;45.630;8.886;2023-08-31T05:40:10;16.50;99.90
34406;DHT22;20658;45.630;8.886;2023-08-31T05:42:45;16.60;99.90
34406;DHT22;20658;45.630;8.886;2023-08-31T05:45:20;16.60;99.90
34406;DHT22;20658;45.630;8.886;2023-08-31T05:47:48;16.70;99.90
34406;DHT22;20658;45.630;8.886;2023-08-31T05:50:22;16.70;99.90
34406;DHT22;20658;45.630;8.886;2023-08-31T05:52:55;16.80;99.90
34406;DHT22;20658;45.630;8.886;2023-08-31T05:55:29;16.80;99.80
34406;DHT22;20658;45.630;8.886;2023-08-31T05:58:04;16.90;99.60
34406;DHT22;20658;45.630;8.886;2023-08-31T06:00:39;16.90;99.30
34406;DHT22;20658;45.630;8.886;2023-08-31T06:03:12;17.00;98.80
34406;DHT22;20658;45.630;8.886;2023-08-31T06:05:47;17.00;98.40
34406;DHT22;20658;45.630;8.886;2023-08-31T06:08:20;17.10;98.20
34406;DHT22;20658;45.630;8.886;2023-08-31T06:10:49;17.10;97.50
34406;DHT22;20658;45.630;8.886;2023-08-31T06:13:18;17.20;96.80
34406;DHT22;20658;45.630;8.886;2023-08-31T06:15:53;17.40;96.70
34406;DHT22;20658;45.630;8.886;2023-08-31T06:18:22;17.70;95.00
34406;DHT22;20658;45.630;8.886;2023-08-31T06:20:51;17.80;93.20
34406;DHT22;20658;45.630;8.886;2023-08-31T06:23:24;17.90;92.50
34406;DHT22;20658;45.630;8.886;2023-08-31T06:25:58;18.00;92.10
34406;DHT22;20658;45.630;8.886;2023-08-31T06:28:31;18.00;91.90
34406;DHT22;20658;45.630;8.886;2023-08-31T06:31:01;18.10;91.10
34406;DHT22;20658;45.630;8.886;2023-08-31T06:33:36;18.20;90.40
34406;DHT22;20658;45.630;8.886;2023-08-31T06:36:04;18.20;90.40
34406;DHT22;20658;45.630;8.886;2023-08-31T06:38:38;18.40;91.00
34406;DHT22;20658;45.630;8.886;2023-08-31T06:41:11;18.40;90.50
34406;DHT22;20658;45.630;8.886;2023-08-31T06:43:45;18.60;89.50
34406;DHT22;20658;45.630;8.886;2023-08-31T06:46:20;18.80;88.60
34406;DHT22;20658;45.630;8.886;2023-08-31T06:48:49;19.20;86.80
34406;DHT22;20658;45.630;8.886;2023-08-31T06:51:17;19.50;85.10
34406;DHT22;20658;45.630;8.886;2023-08-31T06:53:51;19.50;84.10
34406;DHT22;20658;45.630;8.886;2023-08-31T06:56:19;19.50;84.20
34406;DHT22;20658;45.630;8.886;2023-08-31T06:58:53;19.50;84.20
34406;DHT22;20658;45.630;8.886;2023-08-31T07:01:28;19.90;83.70
34406;DHT22;20658;45.630;8.886;2023-08-31T07:04:02;20.20;82.10
34406;DHT22;20658;45.630;8.886;2023-08-31T07:06:36;20.40;80.60
34406;DHT22;20658;45.630;8.886;2023-08-31T07:09:09;20.70;79.60
34406;DHT22;20658;45.630;8.886;2023-08-31T07:11:43;21.00;78.70
34406;DHT22;20658;45.630;8.886;2023-08-31T07:14:17;21.30;77.80
34406;DHT22;20658;45.630;8.886;2023-08-31T07:16:52;21.40;76.50
34406;DHT22;20658;45.630;8.886;2023-08-31T07:19:20;21.40;76.00
34406;DHT22;20658;45.630;8.886;2023-08-31T07:21:54;21.30;76.60
34406;DHT22;20658;45.630;8.886;2023-08-31T07:24:27;21.30;77.00
34406;DHT22;20658;45.630;8.886;2023-08-31T07:27:02;21.30;76.70
34406;DHT22;20658;45.630;8.886;2023-08-31T07:29:36;21.00;77.40
34406;DHT22;20658;45.630;8.886;2023-08-31T07:32:11;21.10;78.10
34406;DHT22;20658;45.630;8.886;2023-08-31T07:34:44;21.30;77.90
34406;DHT22;20658;45.630;8.886;2023-08-31T07:37:18;21.20;77.10
34406;DHT22;20658;45.630;8.886;2023-08-31T07:39:47;21.40;77.40
34406;DHT22;20658;45.630;8.886;2023-08-31T07:42:20;21.80;76.70
34406;DHT22;20658;45.630;8.886;2023-08-31T07:44:49;22.10;76.00
34406;DHT22;20658;45.630;8.886;2023-08-31T07:47:24;22.30;74.40
34406;DHT22;20658;45.630;8.886;2023-08-31T07:49:57;22.60;74.60
34406;DHT22;20658;45.630;8.886;2023-08-31T07:52:30;22.90;73.10
34406;DHT22;20658;45.630;8.886;2023-08-31T07:55:05;22.60;73.90
34406;DHT22;20658;45.630;8.886;2023-08-31T07:57:34;22.70;73.20
34406;DHT22;20658;45.630;8.886;2023-08-31T08:00:08;22.80;72.90
34406;DHT22;20658;45.630;8.886;2023-08-31T08:02:45;22.80;73.20
34406;DHT22;20658;45.630;8.886;2023-08-31T08:05:19;23.00;72.40
34406;DHT22;20658;45.630;8.886;2023-08-31T08:07:52;23.10;71.80
34406;DHT22;20658;45.630;8.886;2023-08-31T08:10:26;23.20;71.70
34406;DHT22;20658;45.630;8.886;2023-08-31T08:12:54;23.10;72.10
34406;DHT22;20658;45.630;8.886;2023-08-31T08:15:28;23.00;72.60
34406;DHT22;20658;45.630;8.886;2023-08-31T08:17:58;23.20;72.70
34406;DHT22;20658;45.630;8.886;2023-08-31T08:20:31;23.40;72.20
34406;DHT22;20658;45.630;8.886;2023-08-31T08:23:05;23.10;70.80
34406;DHT22;20658;45.630;8.886;2023-08-31T08:25:39;22.90;72.60
34406;DHT22;20658;45.630;8.886;2023-08-31T08:28:07;22.90;72.60
34406;DHT22;20658;45.630;8.886;2023-08-31T08:30:36;23.00;72.40
34406;DHT22;20658;45.630;8.886;2023-08-31T08:33:07;23.10;72.00
34406;DHT22;20658;45.630;8.886;2023-08-31T08:35:41;23.30;71.60
34406;DHT22;20658;45.630;8.886;2023-08-31T08:38:15;23.40;71.00
34406;DHT22;20658;45.630;8.886;2023-08-31T08:40:49;23.60;70.30
34406;DHT22;20658;45.630;8.886;2023-08-31T08:43:25;23.60;69.90
34406;DHT22;20658;45.630;8.886;2023-08-31T08:46:00;23.40;70.30
34406;DHT22;20658;45.630;8.886;2023-08-31T08:48:41;23.60;69.90
34406;DHT22;20658;45.630;8.886;2023-08-31T08:51:15;24.10;69.30
34406;DHT22;20658;45.630;8.886;2023-08-31T08:53:51;24.20;68.30
34406;DHT22;20658;45.630;8.886;2023-08-31T08:56:25;24.10;68.70
34406;DHT22;20658;45.630;8.886;2023-08-31T08:58:59;24.30;68.30
34406;DHT22;20658;45.630;8.886;2023-08-31T09:01:33;24.00;68.20
34406;DHT22;20658;45.630;8.886;2023-08-31T09:04:09;24.10;68.50
34406;DHT22;20658;45.630;8.886;2023-08-31T09:06:38;23.90;68.30
34406;DHT22;20658;45.630;8.886;2023-08-31T09:09:08;23.80;69.00
34406;DHT22;20658;45.630;8.886;2023-08-31T09:11:41;24.00;69.30
34406;DHT22;20658;45.630;8.886;2023-08-31T09:14:15;23.70;68.90
34406;DHT22;20658;45.630;8.886;2023-08-31T09:16:51;23.90;69.10
34406;DHT22;20658;45.630;8.886;2023-08-31T09:19:26;24.10;68.30
34406;DHT22;20658;45.630;8.886;2023-08-31T09:22:00;23.90;68.50
34406;DHT22;20658;45.630;8.886;2023-08-31T09:24:40;23.90;68.80
34406;DHT22;20658;45.630;8.886;2023-08-31T09:27:16;24.40;68.60
34406;DHT22;20658;45.630;8.886;2023-08-31T09:29:45;24.60;66.80
34406;DHT22;20658;45.630;8.886;2023-08-31T09:32:19;24.80;66.30
34406;DHT22;20658;45.630;8.886;2023-08-31T09:34:49;25.20;66.40
34406;DHT22;20658;45.630;8.886;2023-08-31T09:37:23;25.40;65.30
34406;DHT22;20658;45.630;8.886;2023-08-31T09:39:51;25.70;63.80
34406;DHT22;20658;45.630;8.886;2023-08-31T09:42:36;25.90;63.50
34406;DHT22;20658;45.630;8.886;2023-08-31T09:45:10;25.40;64.20
34406;DHT22;20658;45.630;8.886;2023-08-31T09:47:44;25.50;64.50
34406;DHT22;20658;45.630;8.886;2023-08-31T09:50:19;25.70;64.00
34406;DHT22;20658;45.630;8.886;2023-08-31T09:52:55;25.80;64.10
34406;DHT22;20658;45.630;8.886;2023-08-31T09:55:31;26.00;64.10
34406;DHT22;20658;45.630;8.886;2023-08-31T09:58:06;26.10;63.50
34406;DHT22;20658;45.630;8.886;2023-08-31T10:00:40;26.00;63.60
34406;DHT22;20658;45.630;8.886;2023-08-31T10:03:10;26.20;62.80
34406;DHT22;20658;45.630;8.886;2023-08-31T10:05:43;26.30;63.00
34406;DHT22;20658;45.630;8.886;2023-08-31T10:08:17;26.10;62.10
34406;DHT22;20658;45.630;8.886;2023-08-31T10:10:51;25.70;62.30
34406;DHT22;20658;45.630;8.886;2023-08-31T10:13:28;25.60;62.70
34406;DHT22;20658;45.630;8.886;2023-08-31T10:16:04;25.30;64.50
34406;DHT22;20658;45.630;8.886;2023-08-31T10:18:39;25.40;64.30
34406;DHT22;20658;45.630;8.886;2023-08-31T10:21:16;25.30;64.40
34406;DHT22;20658;45.630;8.886;2023-08-31T10:23:45;25.40;64.90
34406;DHT22;20658;45.630;8.886;2023-08-31T10:26:23;25.60;65.50
34406;DHT22;20658;45.630;8.886;2023-08-31T10:28:53;26.00;63.60
34406;DHT22;20658;45.630;8.886;2023-08-31T10:31:29;26.20;62.40
34406;DHT22;20658;45.630;8.886;2023-08-31T10:34:04;26.00;62.80
34406;DHT22;20658;45.630;8.886;2023-08-31T10:36:45;26.30;63.60
34406;DHT22;20658;45.630;8.886;2023-08-31T10:39:19;26.70;61.10
34406;DHT22;20658;45.630;8.886;2023-08-31T10:41:53;27.20;60.70
34406;DHT22;20658;45.630;8.886;2023-08-31T10:44:30;27.40;60.50
34406;DHT22;20658;45.630;8.886;2023-08-31T10:47:05;27.60;59.30
34406;DHT22;20658;45.630;8.886;2023-08-31T10:49:50;27.60;59.00
34406;DHT22;20658;45.630;8.886;2023-08-31T10:52:21;27.70;59.40
34406;DHT22;20658;45.630;8.886;2023-08-31T10:54:55;27.90;58.70
34406;DHT22;20658;45.630;8.886;2023-08-31T10:57:30;28.10;58.80
34406;DHT22;20658;45.630;8.886;2023-08-31T11:00:04;28.40;58.00
34406;DHT22;20658;45.630;8.886;2023-08-31T11:02:43;28.30;56.90
34406;DHT22;20658;45.630;8.886;2023-08-31T11:05:17;28.30;57.50
34406;DHT22;20658;45.630;8.886;2023-08-31T11:07:52;27.90;57.10
34406;DHT22;20658;45.630;8.886;2023-08-31T11:10:24;28.00;57.00
34406;DHT22;20658;45.630;8.886;2023-08-31T11:12:59;27.70;57.40
34406;DHT22;20658;45.630;8.886;2023-08-31T11:15:28;27.90;56.10
34406;DHT22;20658;45.630;8.886;2023-08-31T11:18:02;27.80;56.10
34406;DHT22;20658;45.630;8.886;2023-08-31T11:20:31;28.40;56.80
34406;DHT22;20658;45.630;8.886;2023-08-31T11:23:01;28.50;55.50
34406;DHT22;20658;45.630;8.886;2023-08-31T11:25:35;28.40;56.70
34406;DHT22;20658;45.630;8.886;2023-08-31T11:28:08;28.70;56.00
34406;DHT22;20658;45.630;8.886;2023-08-31T11:30:42;28.60;56.00
34406;DHT22;20658;45.630;8.886;2023-08-31T11:33:18;28.60;56.00
34406;DHT22;20658;45.630;8.886;2023-08-31T11:35:53;28.50;55.60
34406;DHT22;20658;45.630;8.886;2023-08-31T11:38:29;28.60;55.20
34406;DHT22;20658;45.630;8.886;2023-08-31T11:41:03;28.80;54.20
34406;DHT22;20658;45.630;8.886;2023-08-31T11:43:32;28.90;53.80
34406;DHT22;20658;45.630;8.886;2023-08-31T11:46:06;29.10;53.90
34406;DHT22;20658;45.630;8.886;2023-08-31T11:48:40;29.30;53.00
34406;DHT22;20658;45.630;8.886;2023-08-31T11:51:13;29.40;53.30
34406;DHT22;20658;45.630;8.886;2023-08-31T11:53:48;29.50;53.00
34406;DHT22;20658;45.630;8.886;2023-08-31T11:56:17;29.60;52.50
34406;DHT22;20658;45.630;8.886;2023-08-31T11:58:55;29.70;52.50
34406;DHT22;20658;45.630;8.886;2023-08-31T12:01:29;29.70;52.60
34406;DHT22;20658;45.630;8.886;2023-08-31T12:03:57;29.70;52.00
34406;DHT22;20658;45.630;8.886;2023-08-31T12:06:32;29.60;51.80
34406;DHT22;20658;45.630;8.886;2023-08-31T12:09:08;29.70;51.30
34406;DHT22;20658;45.630;8.886;2023-08-31T12:11:42;29.70;50.70
34406;DHT22;20658;45.630;8.886;2023-08-31T12:14:20;29.60;51.60
34406;DHT22;20658;45.630;8.886;2023-08-31T12:16:59;29.50;52.50
34406;DHT22;20658;45.630;8.886;2023-08-31T12:19:37;29.50;51.70
34406;DHT22;20658;45.630;8.886;2023-08-31T12:22:11;29.40;51.10
34406;DHT22;20658;45.630;8.886;2023-08-31T12:24:47;29.40;51.80
34406;DHT22;20658;45.630;8.886;2023-08-31T12:27:20;29.50;51.50
34406;DHT22;20658;45.630;8.886;2023-08-31T12:29:54;29.60;49.50
34406;DHT22;20658;45.630;8.886;2023-08-31T12:32:28;30.10;49.60
34406;DHT22;20658;45.630;8.886;2023-08-31T12:35:02;29.80;50.20
34406;DHT22;20658;45.630;8.886;2023-08-31T12:37:36;30.00;51.20
34406;DHT22;20658;45.630;8.886;2023-08-31T12:40:12;30.10;50.90
34406;DHT22;20658;45.630;8.886;2023-08-31T12:42:45;29.90;49.30
34406;DHT22;20658;45.630;8.886;2023-08-31T12:45:14;29.70;49.80
34406;DHT22;20658;45.630;8.886;2023-08-31T12:47:47;29.70;50.00
34406;DHT22;20658;45.630;8.886;2023-08-31T12:50:16;30.10;50.20
34406;DHT22;20658;45.630;8.886;2023-08-31T12:52:49;30.10;49.30
34406;DHT22;20658;45.630;8.886;2023-08-31T12:55:24;29.70;49.80
34406;DHT22;20658;45.630;8.886;2023-08-31T12:57:58;29.70;49.50
34406;DHT22;20658;45.630;8.886;2023-08-31T13:00:32;29.80;49.20
34406;DHT22;20658;45.630;8.886;2023-08-31T13:03:05;29.70;49.40
34406;DHT22;20658;45.630;8.886;2023-08-31T13:05:39;29.70;49.00
34406;DHT22;20658;45.630;8.886;2023-08-31T13:08:13;29.70;49.50
34406;DHT22;20658;45.630;8.886;2023-08-31T13:10:52;29.90;49.70
34406;DHT22;20658;45.630;8.886;2023-08-31T13:13:26;29.80;49.30
34406;DHT22;20658;45.630;8.886;2023-08-31T13:15:55;29.60;49.80
34406;DHT22;20658;45.630;8.886;2023-08-31T13:18:24;29.60;50.50
34406;DHT22;20658;45.630;8.886;2023-08-31T13:20:53;29.20;51.30
34406;DHT22;20658;45.630;8.886;2023-08-31T13:23:27;28.90;50.50
34406;DHT22;20658;45.630;8.886;2023-08-31T13:25:57;29.50;50.40
34406;DHT22;20658;45.630;8.886;2023-08-31T13:28:25;29.80;49.50
34406;DHT22;20658;45.630;8.886;2023-08-31T13:30:55;29.80;48.60
34406;DHT22;20658;45.630;8.886;2023-08-31T13:33:33;29.70;48.60
34406;DHT22;20658;45.630;8.886;2023-08-31T13:36:02;30.00;49.00
34406;DHT22;20658;45.630;8.886;2023-08-31T13:38:31;30.30;47.90
34406;DHT22;20658;45.630;8.886;2023-08-31T13:41:06;30.10;48.10
34406;DHT22;20658;45.630;8.886;2023-08-31T13:43:35;29.90;47.90
34406;DHT22;20658;45.630;8.886;2023-08-31T13:46:04;29.80;47.30
34406;DHT22;20658;45.630;8.886;2023-08-31T13:48:37;29.60;48.10
34406;DHT22;20658;45.630;8.886;2023-08-31T13:51:06;29.50;48.90
34406;DHT22;20658;45.630;8.886;2023-08-31T13:53:39;29.40;49.30
34406;DHT22;20658;45.630;8.886;2023-08-31T13:56:09;29.20;49.80
34406;DHT22;20658;45.630;8.886;2023-08-31T13:58:38;29.20;49.20
34406;DHT22;20658;45.630;8.886;2023-08-31T14:01:12;29.30;48.80
34406;DHT22;20658;45.630;8.886;2023-08-31T14:03:42;29.30;49.10
34406;DHT22;20658;45.630;8.886;2023-08-31T14:06:10;29.30;49.00
34406;DHT22;20658;45.630;8.886;2023-08-31T14:08:39;29.30;49.30
34406;DHT22;20658;45.630;8.886;2023-08-31T14:11:10;29.30;50.00
34406;DHT22;20658;45.630;8.886;2023-08-31T14:13:38;29.10;50.70
34406;DHT22;20658;45.630;8.886;2023-08-31T14:16:07;29.20;50.80
34406;DHT22;20658;45.630;8.886;2023-08-31T14:18:36;29.20;50.70
34406;DHT22;20658;45.630;8.886;2023-08-31T14:21:15;29.30;50.40
34406;DHT22;20658;45.630;8.886;2023-08-31T14:23:49;29.10;49.10
34406;DHT22;20658;45.630;8.886;2023-08-31T14:26:31;29.10;49.30
34406;DHT22;20658;45.630;8.886;2023-08-31T14:29:04;28.90;48.20
34406;DHT22;20658;45.630;8.886;2023-08-31T14:31:33;29.00;48.50
34406;DHT22;20658;45.630;8.886;2023-08-31T14:34:01;29.00;48.40
34406;DHT22;20658;45.630;8.886;2023-08-31T14:36:30;28.90;49.00
34406;DHT22;20658;45.630;8.886;2023-08-31T14:39:01;28.90;49.20
34406;DHT22;20658;45.630;8.886;2023-08-31T14:41:32;28.90;49.60
34406;DHT22;20658;45.630;8.886;2023-08-31T14:44:00;28.80;49.90
34406;DHT22;20658;45.630;8.886;2023-08-31T14:46:47;28.80;49.90
34406;DHT22;20658;45.630;8.886;2023-08-31T14:49:40;28.70;50.00
34406;DHT22;20658;45.630;8.886;2023-08-31T14:52:27;28.70;50.10
34406;DHT22;20658;45.630;8.886;2023-08-31T14:55:19;28.60;50.20
34406;DHT22;20658;45.630;8.886;2023-08-31T14:58:08;28.60;50.70
34406;DHT22;20658;45.630;8.886;2023-08-31T15:01:00;28.50;50.00
34406;DHT22;20658;45.630;8.886;2023-08-31T15:03:47;28.60;50.10
34406;DHT22;20658;45.630;8.886;2023-08-31T15:06:35;28.60;50.00
34406;DHT22;20658;45.630;8.886;2023-08-31T15:09:27;28.80;49.40
34406;DHT22;20658;45.630;8.886;2023-08-31T15:11:56;28.60;49.50
34406;DHT22;20658;45.630;8.886;2023-08-31T15:14:32;28.60;49.70
34406;DHT22;20658;45.630;8.886;2023-08-31T15:17:00;28.60;49.40
34406;DHT22;20658;45.630;8.886;2023-08-31T15:19:53;28.50;49.30
34406;DHT22;20658;45.630;8.886;2023-08-31T15:22:21;28.40;49.80
34406;DHT22;20658;45.630;8.886;2023-08-31T15:25:13;28.40;50.50
34406;DHT22;20658;45.630;8.886;2023-08-31T15:27:50;28.30;49.80
34406;DHT22;20658;45.630;8.886;2023-08-31T15:30:43;28.30;49.80
34406;DHT22;20658;45.630;8.886;2023-08-31T15:33:36;28.10;50.20
34406;DHT22;20658;45.630;8.886;2023-08-31T15:36:41;28.10;50.50
34406;DHT22;20658;45.630;8.886;2023-08-31T15:39:33;28.10;50.90
34406;DHT22;20658;45.630;8.886;2023-08-31T15:42:25;27.90;50.20
34406;DHT22;20658;45.630;8.886;2023-08-31T15:45:19;27.70;50.10
34406;DHT22;20658;45.630;8.886;2023-08-31T15:48:13;27.70;50.70
34406;DHT22;20658;45.630;8.886;2023-08-31T15:51:05;27.50;50.90
34406;DHT22;20658;45.630;8.886;2023-08-31T15:53:56;27.40;51.60
34406;DHT22;20658;45.630;8.886;2023-08-31T15:56:48;27.40;51.50
34406;DHT22;20658;45.630;8.886;2023-08-31T15:59:40;27.40;51.70
34406;DHT22;20658;45.630;8.886;2023-08-31T16:02:33;27.50;51.70
34406;DHT22;20658;45.630;8.886;2023-08-31T16:05:26;27.60;51.70
34406;DHT22;20658;45.630;8.886;2023-08-31T16:08:13;27.70;51.60
34406;DHT22;20658;45.630;8.886;2023-08-31T16:11:06;27.70;50.10